sensor_id;sensor_type;location;lat;lon;timestamp;temperature;humidity
7894;DHT22;51343;51.396;6.656;2023-06-14T00:01:39;19.50;1.00
7894;DHT22;51343;51.396;6.656;2023-06-14T00:04:08;19.50;1.00
7894;DHT22;51343;51.396;6.656;2023-06-14T00:06:35;19.50;1.00
7894;DHT22;51343;51.396;6.656;2023-06-14T00:09:11;19.50;1.00
7894;DHT22;51343;51.396;6.656;2023-06-14T00:11:43;19.50;1.00
7894;DHT22;51343;51.396;6.656;2023-06-14T00:14:10;19.60;1.00
7894;DHT22;51343;51.396;6.656;2023-06-14T00:16:37;19.60;1.00
7894;DHT22;51343;51.396;6.656;2023-06-14T00:19:04;19.60;1.00
7894;DHT22;51343;51.396;6.656;2023-06-14T00:21:30;19.60;1.00
7894;DHT22;51343;51.396;6.656;2023-06-14T00:23:57;19.50;1.00
7894;DHT22;51343;51.396;6.656;2023-06-14T00:26:25;19.50;1.00
7894;DHT22;51343;51.396;6.656;2023-06-14T00:28:52;19.50;1.00
7894;DHT22;51343;51.396;6.656;2023-06-14T00:31:19;19.50;1.00
7894;DHT22;51343;51.396;6.656;2023-06-14T00:33:46;19.50;1.00
7894;DHT22;51343;51.396;6.656;2023-06-14T00:36:13;19.50;1.00
7894;DHT22;51343;51.396;6.656;2023-06-14T00:38:48;19.50;1.00
7894;DHT22;51343;51.396;6.656;2023-06-14T00:41:14;19.50;1.00
7894;DHT22;51343;51.396;6.656;2023-06-14T00:43:42;19.40;1.00
7894;DHT22;51343;51.396;6.656;2023-06-14T00:46:09;19.40;1.00
7894;DHT22;51343;51.396;6.656;2023-06-14T00:48:36;19.40;1.00
7894;DHT22;51343;51.396;6.656;2023-06-14T00:51:03;19.40;1.00
7894;DHT22;51343;51.396;6.656;2023-06-14T00:53:30;19.30;1.00
7894;DHT22;51343;51.396;6.656;2023-06-14T00:55:59;19.30;1.00
7894;DHT22;51343;51.396;6.656;2023-06-14T00:58:26;19.30;1.00
7894;DHT22;51343;51.396;6.656;2023-06-14T01:00:54;19.20;1.00
7894;DHT22;51343;51.396;6.656;2023-06-14T01:03:21;19.10;1.00
7894;DHT22;51343;51.396;6.656;2023-06-14T01:05:48;19.10;1.00
7894;DHT22;51343;51.396;6.656;2023-06-14T01:08:20;19.10;1.00
7894;DHT22;51343;51.396;6.656;2023-06-14T01:10:51;19.00;1.00
7894;DHT22;51343;51.396;6.656;2023-06-14T01:13:20;19.00;1.00
7894;DHT22;51343;51.396;6.656;2023-06-14T01:15:47;18.90;1.00
7894;DHT22;51343;51.396;6.656;2023-06-14T01:18:15;19.00;1.00
7894;DHT22;51343;51.396;6.656;2023-06-14T01:20:43;19.00;1.00
7894;DHT22;51343;51.396;6.656;2023-06-14T01:23:22;19.00;1.00
7894;DHT22;51343;51.396;6.656;2023-06-14T01:25:49;18.90;1.00
7894;DHT22;51343;51.396;6.656;2023-06-14T01:28:18;18.90;1.00
7894;DHT22;51343;51.396;6.656;2023-06-14T01:30:46;18.90;1.00
7894;DHT22;51343;51.396;6.656;2023-06-14T01:33:15;18.90;1.00
7894;DHT22;51343;51.396;6.656;2023-06-14T01:35:43;18.90;1.00
7894;DHT22;51343;51.396;6.656;2023-06-14T01:38:11;18.90;1.00
7894;DHT22;51343;51.396;6.656;2023-06-14T01:40:40;18.80;1.00
7894;DHT22;51343;51.396;6.656;2023-06-14T01:43:08;18.80;1.00
7894;DHT22;51343;51.396;6.656;2023-06-14T01:45:35;18.80;1.00
7894;DHT22;51343;51.396;6.656;2023-06-14T01:48:05;18.80;1.00
7894;DHT22;51343;51.396;6.656;2023-06-14T01:50:31;18.80;1.00
7894;DHT22;51343;51.396;6.656;2023-06-14T01:52:58;18.70;1.00
7894;DHT22;51343;51.396;6.656;2023-06-14T01:55:25;18.70;1.00
7894;DHT22;51343;51.396;6.656;2023-06-14T01:57:53;18.70;1.00
7894;DHT22;51343;51.396;6.656;2023-06-14T02:00:20;18.70;1.00
7894;DHT22;51343;51.396;6.656;2023-06-14T02:02:47;18.70;1.00
7894;DHT22;51343;51.396;6.656;2023-06-14T02:05:16;18.60;1.00
7894;DHT22;51343;51.396;6.656;2023-06-14T02:07:44;18.60;1.00
7894;DHT22;51343;51.396;6.656;2023-06-14T02:10:13;18.50;1.00
7894;DHT22;51343;51.396;6.656;2023-06-14T02:12:40;18.60;1.00
7894;DHT22;51343;51.396;6.656;2023-06-14T02:15:09;18.40;1.00
7894;DHT22;51343;51.396;6.656;2023-06-14T02:17:42;18.50;1.00
7894;DHT22;51343;51.396;6.656;2023-06-14T02:20:09;18.50;1.00
7894;DHT22;51343;51.396;6.656;2023-06-14T02:22:35;18.50;1.00
7894;DHT22;51343;51.396;6.656;2023-06-14T02:25:02;18.50;1.00
7894;DHT22;51343;51.396;6.656;2023-06-14T02:27:29;18.40;1.00
7894;DHT22;51343;51.396;6.656;2023-06-14T02:29:55;18.40;1.00
7894;DHT22;51343;51.396;6.656;2023-06-14T02:32:23;18.40;1.00
7894;DHT22;51343;51.396;6.656;2023-06-14T02:34:53;18.30;1.00
7894;DHT22;51343;51.396;6.656;2023-06-14T02:37:20;18.30;1.00
7894;DHT22;51343;51.396;6.656;2023-06-14T02:39:47;18.20;1.00
7894;DHT22;51343;51.396;6.656;2023-06-14T02:42:13;18.10;1.00
7894;DHT22;51343;51.396;6.656;2023-06-14T02:44:40;18.00;1.00
7894;DHT22;51343;51.396;6.656;2023-06-14T02:47:07;18.00;1.00
7894;DHT22;51343;51.396;6.656;2023-06-14T02:49:35;18.00;1.00
7894;DHT22;51343;51.396;6.656;2023-06-14T02:52:08;17.90;1.00
7894;DHT22;51343;51.396;6.656;2023-06-14T02:54:41;17.80;1.00
7894;DHT22;51343;51.396;6.656;2023-06-14T02:57:08;17.80;1.00
7894;DHT22;51343;51.396;6.656;2023-06-14T02:59:36;17.80;1.00
7894;DHT22;51343;51.396;6.656;2023-06-14T03:02:02;17.70;1.00
7894;DHT22;51343;51.396;6.656;2023-06-14T03:04:30;17.70;1.00
7894;DHT22;51343;51.396;6.656;2023-06-14T03:07:03;17.60;1.00
7894;DHT22;51343;51.396;6.656;2023-06-14T03:09:35;17.50;1.00
7894;DHT22;51343;51.396;6.656;2023-06-14T03:12:04;17.50;1.00
7894;DHT22;51343;51.396;6.656;2023-06-14T03:14:32;17.60;1.00
7894;DHT22;51343;51.396;6.656;2023-06-14T03:17:00;17.50;1.00
7894;DHT22;51343;51.396;6.656;2023-06-14T03:19:26;17.50;1.00
7894;DHT22;51343;51.396;6.656;2023-06-14T03:21:53;17.50;1.00
7894;DHT22;51343;51.396;6.656;2023-06-14T03:24:24;17.50;1.00
7894;DHT22;51343;51.396;6.656;2023-06-14T03:26:52;17.50;1.00
7894;DHT22;51343;51.396;6.656;2023-06-14T03:29:20;17.40;1.00
7894;DHT22;51343;51.396;6.656;2023-06-14T03:31:56;17.50;1.00
7894;DHT22;51343;51.396;6.656;2023-06-14T03:34:23;17.40;1.00
7894;DHT22;51343;51.396;6.656;2023-06-14T03:36:50;17.50;1.00
7894;DHT22;51343;51.396;6.656;2023-06-14T03:39:16;17.50;1.00
7894;DHT22;51343;51.396;6.656;2023-06-14T03:41:44;17.50;1.00
7894;DHT22;51343;51.396;6.656;2023-06-14T03:44:11;17.40;1.00
7894;DHT22;51343;51.396;6.656;2023-06-14T03:46:39;17.50;1.00
7894;DHT22;51343;51.396;6.656;2023-06-14T03:49:05;17.50;1.00
7894;DHT22;51343;51.396;6.656;2023-06-14T03:51:33;17.50;1.00
7894;DHT22;51343;51.396;6.656;2023-06-14T03:54:00;17.50;1.00
7894;DHT22;51343;51.396;6.656;2023-06-14T03:56:27;17.40;1.00
7894;DHT22;51343;51.396;6.656;2023-06-14T03:58:55;17.40;1.00
7894;DHT22;51343;51.396;6.656;2023-06-14T04:01:22;17.30;1.00
7894;DHT22;51343;51.396;6.656;2023-06-14T04:03:55;17.40;1.00
7894;DHT22;51343;51.396;6.656;2023-06-14T04:06:22;17.30;1.00
7894;DHT22;51343;51.396;6.656;2023-06-14T04:08:50;17.40;1.00
7894;DHT22;51343;51.396;6.656;2023-06-14T04:11:17;17.40;1.00
7894;DHT22;51343;51.396;6.656;2023-06-14T04:13:44;17.40;1.00
7894;DHT22;51343;51.396;6.656;2023-06-14T04:16:12;17.40;1.00
7894;DHT22;51343;51.396;6.656;2023-06-14T04:18:38;17.40;1.00
7894;DHT22;51343;51.396;6.656;2023-06-14T04:21:05;17.40;1.00
7894;DHT22;51343;51.396;6.656;2023-06-14T04:23:33;17.50;1.00
7894;DHT22;51343;51.396;6.656;2023-06-14T04:26:00;17.50;1.00
7894;DHT22;51343;51.396;6.656;2023-06-14T04:28:28;17.40;1.00
7894;DHT22;51343;51.396;6.656;2023-06-14T04:30:55;17.40;1.00
7894;DHT22;51343;51.396;6.656;2023-06-14T04:33:25;17.40;1.00
7894;DHT22;51343;51.396;6.656;2023-06-14T04:35:53;17.50;1.00
7894;DHT22;51343;51.396;6.656;2023-06-14T04:38:22;17.50;1.00
7894;DHT22;51343;51.396;6.656;2023-06-14T04:40:51;17.50;1.00
7894;DHT22;51343;51.396;6.656;2023-06-14T04:43:18;17.60;1.00
7894;DHT22;51343;51.396;6.656;2023-06-14T04:45:50;17.70;1.00
7894;DHT22;51343;51.396;6.656;2023-06-14T04:48:17;17.70;1.00
7894;DHT22;51343;51.396;6.656;2023-06-14T04:50:46;17.80;1.00
7894;DHT22;51343;51.396;6.656;2023-06-14T04:53:13;17.80;1.00
7894;DHT22;51343;51.396;6.656;2023-06-14T04:55:39;17.90;1.00
7894;DHT22;51343;51.396;6.656;2023-06-14T04:58:10;18.00;1.00
7894;DHT22;51343;51.396;6.656;2023-06-14T05:00:38;18.00;1.00
7894;DHT22;51343;51.396;6.656;2023-06-14T05:03:04;18.00;1.00
7894;DHT22;51343;51.396;6.656;2023-06-14T05:05:33;18.10;1.00
7894;DHT22;51343;51.396;6.656;2023-06-14T05:08:01;18.20;1.00
7894;DHT22;51343;51.396;6.656;2023-06-14T05:10:28;18.20;1.00
7894;DHT22;51343;51.396;6.656;2023-06-14T05:12:58;18.30;1.00
7894;DHT22;51343;51.396;6.656;2023-06-14T05:15:25;18.40;1.00
7894;DHT22;51343;51.396;6.656;2023-06-14T05:17:54;18.40;1.00
7894;DHT22;51343;51.396;6.656;2023-06-14T05:20:21;18.50;1.00
7894;DHT22;51343;51.396;6.656;2023-06-14T05:22:50;18.60;1.00
7894;DHT22;51343;51.396;6.656;2023-06-14T05:25:18;18.70;1.00
7894;DHT22;51343;51.396;6.656;2023-06-14T05:27:48;18.80;1.00
7894;DHT22;51343;51.396;6.656;2023-06-14T05:30:15;18.90;1.00
7894;DHT22;51343;51.396;6.656;2023-06-14T05:32:42;19.00;1.00
7894;DHT22;51343;51.396;6.656;2023-06-14T05:35:25;19.00;1.00
7894;DHT22;51343;51.396;6.656;2023-06-14T05:37:52;19.10;1.00
7894;DHT22;51343;51.396;6.656;2023-06-14T05:40:27;19.10;1.00
7894;DHT22;51343;51.396;6.656;2023-06-14T05:42:54;19.20;1.00
7894;DHT22;51343;51.396;6.656;2023-06-14T05:47:55;19.40;1.00
7894;DHT22;51343;51.396;6.656;2023-06-14T05:50:27;19.50;1.00
7894;DHT22;51343;51.396;6.656;2023-06-14T05:52:54;19.60;1.00
7894;DHT22;51343;51.396;6.656;2023-06-14T05:55:21;19.60;1.00
7894;DHT22;51343;51.396;6.656;2023-06-14T05:57:51;19.70;1.00
7894;DHT22;51343;51.396;6.656;2023-06-14T06:00:18;19.70;1.00
7894;DHT22;51343;51.396;6.656;2023-06-14T06:02:46;19.70;1.00
7894;DHT22;51343;51.396;6.656;2023-06-14T06:05:13;19.80;1.00
7894;DHT22;51343;51.396;6.656;2023-06-14T06:07:41;20.00;1.00
7894;DHT22;51343;51.396;6.656;2023-06-14T06:10:10;20.20;1.00
7894;DHT22;51343;51.396;6.656;2023-06-14T06:12:37;20.10;1.00
7894;DHT22;51343;51.396;6.656;2023-06-14T06:15:05;20.20;1.00
7894;DHT22;51343;51.396;6.656;2023-06-14T06:17:33;20.30;1.00
7894;DHT22;51343;51.396;6.656;2023-06-14T06:20:00;20.40;1.00
7894;DHT22;51343;51.396;6.656;2023-06-14T06:22:26;20.50;1.00
7894;DHT22;51343;51.396;6.656;2023-06-14T06:24:53;20.50;1.00
7894;DHT22;51343;51.396;6.656;2023-06-14T06:27:19;20.50;1.00
7894;DHT22;51343;51.396;6.656;2023-06-14T06:29:48;20.60;1.00
7894;DHT22;51343;51.396;6.656;2023-06-14T06:32:21;20.70;1.00
7894;DHT22;51343;51.396;6.656;2023-06-14T06:34:48;20.70;1.00
7894;DHT22;51343;51.396;6.656;2023-06-14T06:37:15;20.80;1.00
7894;DHT22;51343;51.396;6.656;2023-06-14T06:39:42;20.90;1.00
7894;DHT22;51343;51.396;6.656;2023-06-14T06:42:09;21.00;1.00
7894;DHT22;51343;51.396;6.656;2023-06-14T06:44:36;21.10;1.00
7894;DHT22;51343;51.396;6.656;2023-06-14T06:47:02;21.00;1.00
7894;DHT22;51343;51.396;6.656;2023-06-14T06:49:30;21.00;1.00
7894;DHT22;51343;51.396;6.656;2023-06-14T06:52:00;21.10;1.00
7894;DHT22;51343;51.396;6.656;2023-06-14T06:54:27;21.30;1.00
7894;DHT22;51343;51.396;6.656;2023-06-14T06:56:56;21.40;1.00
7894;DHT22;51343;51.396;6.656;2023-06-14T06:59:25;21.40;1.00
7894;DHT22;51343;51.396;6.656;2023-06-14T07:01:52;21.40;1.00
7894;DHT22;51343;51.396;6.656;2023-06-14T07:04:19;21.50;1.00
7894;DHT22;51343;51.396;6.656;2023-06-14T07:06:47;21.50;1.00
7894;DHT22;51343;51.396;6.656;2023-06-14T07:09:15;21.50;1.00
7894;DHT22;51343;51.396;6.656;2023-06-14T07:11:42;21.50;1.00
7894;DHT22;51343;51.396;6.656;2023-06-14T07:14:09;21.50;1.00
7894;DHT22;51343;51.396;6.656;2023-06-14T07:16:36;21.50;1.00
7894;DHT22;51343;51.396;6.656;2023-06-14T07:19:03;21.50;1.00
7894;DHT22;51343;51.396;6.656;2023-06-14T07:21:30;21.50;1.00
7894;DHT22;51343;51.396;6.656;2023-06-14T07:23:58;21.50;1.00
7894;DHT22;51343;51.396;6.656;2023-06-14T07:26:24;21.40;1.00
7894;DHT22;51343;51.396;6.656;2023-06-14T07:28:51;21.50;1.00
7894;DHT22;51343;51.396;6.656;2023-06-14T07:31:18;21.70;1.00
7894;DHT22;51343;51.396;6.656;2023-06-14T07:33:45;21.80;1.00
7894;DHT22;51343;51.396;6.656;2023-06-14T07:36:12;21.80;1.00
7894;DHT22;51343;51.396;6.656;2023-06-14T07:38:38;21.80;1.00
7894;DHT22;51343;51.396;6.656;2023-06-14T07:41:08;21.80;1.00
7894;DHT22;51343;51.396;6.656;2023-06-14T07:43:35;21.70;1.00
7894;DHT22;51343;51.396;6.656;2023-06-14T07:46:02;21.60;1.00
7894;DHT22;51343;51.396;6.656;2023-06-14T07:48:28;21.70;1.00
7894;DHT22;51343;51.396;6.656;2023-06-14T07:50:55;21.80;1.00
7894;DHT22;51343;51.396;6.656;2023-06-14T07:53:22;21.80;1.00
7894;DHT22;51343;51.396;6.656;2023-06-14T07:55:48;22.00;1.00
7894;DHT22;51343;51.396;6.656;2023-06-14T07:58:17;22.10;1.00
7894;DHT22;51343;51.396;6.656;2023-06-14T08:00:44;22.10;1.00
7894;DHT22;51343;51.396;6.656;2023-06-14T08:03:11;22.20;1.00
7894;DHT22;51343;51.396;6.656;2023-06-14T08:05:38;22.20;1.00
7894;DHT22;51343;51.396;6.656;2023-06-14T08:08:04;22.30;1.00
7894;DHT22;51343;51.396;6.656;2023-06-14T08:10:31;22.30;1.00
7894;DHT22;51343;51.396;6.656;2023-06-14T08:12:58;22.40;1.00
7894;DHT22;51343;51.396;6.656;2023-06-14T08:15:26;22.40;1.00
7894;DHT22;51343;51.396;6.656;2023-06-14T08:17:53;22.50;1.00
7894;DHT22;51343;51.396;6.656;2023-06-14T08:20:20;22.60;1.00
7894;DHT22;51343;51.396;6.656;2023-06-14T08:22:47;22.50;1.00
7894;DHT22;51343;51.396;6.656;2023-06-14T08:25:14;22.60;1.00
7894;DHT22;51343;51.396;6.656;2023-06-14T08:27:40;22.60;1.00
7894;DHT22;51343;51.396;6.656;2023-06-14T08:30:07;22.60;1.00
7894;DHT22;51343;51.396;6.656;2023-06-14T08:32:36;22.80;1.00
7894;DHT22;51343;51.396;6.656;2023-06-14T08:35:03;22.80;1.00
7894;DHT22;51343;51.396;6.656;2023-06-14T08:37:32;22.80;1.00
7894;DHT22;51343;51.396;6.656;2023-06-14T08:39:59;22.80;1.00
7894;DHT22;51343;51.396;6.656;2023-06-14T08:42:26;22.90;1.00
7894;DHT22;51343;51.396;6.656;2023-06-14T08:44:53;22.90;1.00
7894;DHT22;51343;51.396;6.656;2023-06-14T08:47:21;23.00;1.00
7894;DHT22;51343;51.396;6.656;2023-06-14T08:49:51;22.90;1.00
7894;DHT22;51343;51.396;6.656;2023-06-14T08:52:18;22.80;1.00
7894;DHT22;51343;51.396;6.656;2023-06-14T08:54:46;22.90;1.00
7894;DHT22;51343;51.396;6.656;2023-06-14T08:57:14;23.00;1.00
7894;DHT22;51343;51.396;6.656;2023-06-14T08:59:45;23.10;1.00
7894;DHT22;51343;51.396;6.656;2023-06-14T09:02:14;23.10;1.00
7894;DHT22;51343;51.396;6.656;2023-06-14T09:04:44;23.20;1.00
7894;DHT22;51343;51.396;6.656;2023-06-14T09:07:13;23.30;1.00
7894;DHT22;51343;51.396;6.656;2023-06-14T09:09:40;23.30;1.00
7894;DHT22;51343;51.396;6.656;2023-06-14T09:12:07;23.40;1.00
7894;DHT22;51343;51.396;6.656;2023-06-14T09:14:36;23.50;1.00
7894;DHT22;51343;51.396;6.656;2023-06-14T09:17:05;23.50;1.00
7894;DHT22;51343;51.396;6.656;2023-06-14T09:19:33;23.50;1.00
7894;DHT22;51343;51.396;6.656;2023-06-14T09:22:01;23.50;1.00
7894;DHT22;51343;51.396;6.656;2023-06-14T09:24:29;23.50;1.00
7894;DHT22;51343;51.396;6.656;2023-06-14T09:26:57;23.70;1.00
7894;DHT22;51343;51.396;6.656;2023-06-14T09:29:24;23.80;1.00
7894;DHT22;51343;51.396;6.656;2023-06-14T09:31:52;23.80;1.00
7894;DHT22;51343;51.396;6.656;2023-06-14T09:34:18;23.70;1.00
7894;DHT22;51343;51.396;6.656;2023-06-14T09:36:48;23.50;1.00
7894;DHT22;51343;51.396;6.656;2023-06-14T09:39:16;23.50;1.00
7894;DHT22;51343;51.396;6.656;2023-06-14T09:41:44;23.80;1.00
7894;DHT22;51343;51.396;6.656;2023-06-14T09:44:11;23.60;1.00
7894;DHT22;51343;51.396;6.656;2023-06-14T09:46:38;23.70;1.00
7894;DHT22;51343;51.396;6.656;2023-06-14T09:49:05;23.80;1.00
7894;DHT22;51343;51.396;6.656;2023-06-14T09:51:32;24.00;1.00
7894;DHT22;51343;51.396;6.656;2023-06-14T09:54:00;24.20;1.00
7894;DHT22;51343;51.396;6.656;2023-06-14T09:56:30;24.40;1.00
7894;DHT22;51343;51.396;6.656;2023-06-14T09:58:59;24.30;1.00
7894;DHT22;51343;51.396;6.656;2023-06-14T10:01:26;24.60;1.00
7894;DHT22;51343;51.396;6.656;2023-06-14T10:03:54;25.10;1.00
7894;DHT22;51343;51.396;6.656;2023-06-14T10:06:22;24.80;1.00
7894;DHT22;51343;51.396;6.656;2023-06-14T10:08:49;24.90;1.00
7894;DHT22;51343;51.396;6.656;2023-06-14T10:11:17;25.10;1.00
7894;DHT22;51343;51.396;6.656;2023-06-14T10:13:44;25.00;1.00
7894;DHT22;51343;51.396;6.656;2023-06-14T10:16:12;25.00;1.00
7894;DHT22;51343;51.396;6.656;2023-06-14T10:18:43;25.00;1.00
7894;DHT22;51343;51.396;6.656;2023-06-14T10:21:16;25.30;1.00
7894;DHT22;51343;51.396;6.656;2023-06-14T10:23:45;25.30;1.00
7894;DHT22;51343;51.396;6.656;2023-06-14T10:26:17;25.30;1.00
7894;DHT22;51343;51.396;6.656;2023-06-14T10:28:47;25.30;1.00
7894;DHT22;51343;51.396;6.656;2023-06-14T10:31:22;25.50;1.00
7894;DHT22;51343;51.396;6.656;2023-06-14T10:33:49;25.60;1.00
7894;DHT22;51343;51.396;6.656;2023-06-14T10:36:26;25.60;1.00
7894;DHT22;51343;51.396;6.656;2023-06-14T10:38:57;26.00;1.00
7894;DHT22;51343;51.396;6.656;2023-06-14T10:41:25;26.00;1.00
7894;DHT22;51343;51.396;6.656;2023-06-14T10:46:36;25.80;1.00
7894;DHT22;51343;51.396;6.656;2023-06-14T10:49:03;25.80;1.00
7894;DHT22;51343;51.396;6.656;2023-06-14T10:51:31;25.90;1.00
7894;DHT22;51343;51.396;6.656;2023-06-14T10:54:11;26.10;1.00
7894;DHT22;51343;51.396;6.656;2023-06-14T10:56:38;26.30;1.00
7894;DHT22;51343;51.396;6.656;2023-06-14T10:59:05;26.20;1.00
7894;DHT22;51343;51.396;6.656;2023-06-14T11:01:35;26.20;1.00
7894;DHT22;51343;51.396;6.656;2023-06-14T11:04:11;26.10;1.00
7894;DHT22;51343;51.396;6.656;2023-06-14T11:06:44;26.20;1.00
7894;DHT22;51343;51.396;6.656;2023-06-14T11:09:20;26.20;1.00
7894;DHT22;51343;51.396;6.656;2023-06-14T11:11:50;26.10;1.00
7894;DHT22;51343;51.396;6.656;2023-06-14T11:14:18;26.00;1.00
7894;DHT22;51343;51.396;6.656;2023-06-14T11:16:47;26.20;1.00
7894;DHT22;51343;51.396;6.656;2023-06-14T11:19:15;26.30;1.00
7894;DHT22;51343;51.396;6.656;2023-06-14T11:21:47;26.00;1.00
7894;DHT22;51343;51.396;6.656;2023-06-14T11:24:13;25.80;1.00
7894;DHT22;51343;51.396;6.656;2023-06-14T11:26:40;26.20;1.00
7894;DHT22;51343;51.396;6.656;2023-06-14T11:29:07;26.70;1.00
7894;DHT22;51343;51.396;6.656;2023-06-14T11:31:33;26.70;1.00
7894;DHT22;51343;51.396;6.656;2023-06-14T11:34:00;26.70;1.00
7894;DHT22;51343;51.396;6.656;2023-06-14T11:36:29;26.80;1.00
7894;DHT22;51343;51.396;6.656;2023-06-14T11:38:59;27.10;1.00
7894;DHT22;51343;51.396;6.656;2023-06-14T11:41:31;27.20;1.00
7894;DHT22;51343;51.396;6.656;2023-06-14T11:44:00;27.20;1.00
7894;DHT22;51343;51.396;6.656;2023-06-14T11:46:28;27.10;1.00
7894;DHT22;51343;51.396;6.656;2023-06-14T11:48:55;26.90;1.00
7894;DHT22;51343;51.396;6.656;2023-06-14T11:51:22;26.60;1.00
7894;DHT22;51343;51.396;6.656;2023-06-14T11:53:50;26.40;1.00
7894;DHT22;51343;51.396;6.656;2023-06-14T11:56:17;26.40;1.00
7894;DHT22;51343;51.396;6.656;2023-06-14T11:58:43;26.70;1.00
7894;DHT22;51343;51.396;6.656;2023-06-14T12:01:14;26.90;1.00
7894;DHT22;51343;51.396;6.656;2023-06-14T12:03:46;27.00;1.00
7894;DHT22;51343;51.396;6.656;2023-06-14T12:06:13;26.90;1.00
7894;DHT22;51343;51.396;6.656;2023-06-14T12:08:42;27.00;1.00
7894;DHT22;51343;51.396;6.656;2023-06-14T12:11:12;27.10;1.00
7894;DHT22;51343;51.396;6.656;2023-06-14T12:13:39;27.20;1.00
7894;DHT22;51343;51.396;6.656;2023-06-14T12:16:06;27.40;1.00
7894;DHT22;51343;51.396;6.656;2023-06-14T12:18:33;27.20;1.00
7894;DHT22;51343;51.396;6.656;2023-06-14T12:21:01;27.30;1.00
7894;DHT22;51343;51.396;6.656;2023-06-14T12:23:38;27.40;1.00
7894;DHT22;51343;51.396;6.656;2023-06-14T12:26:05;27.50;1.00
7894;DHT22;51343;51.396;6.656;2023-06-14T12:28:34;27.80;1.00
7894;DHT22;51343;51.396;6.656;2023-06-14T12:31:01;28.00;1.00
7894;DHT22;51343;51.396;6.656;2023-06-14T12:33:28;27.90;1.00
7894;DHT22;51343;51.396;6.656;2023-06-14T12:35:55;27.90;1.00
7894;DHT22;51343;51.396;6.656;2023-06-14T12:38:23;28.00;1.00
7894;DHT22;51343;51.396;6.656;2023-06-14T12:40:49;27.90;1.00
7894;DHT22;51343;51.396;6.656;2023-06-14T12:43:16;27.80;1.00
7894;DHT22;51343;51.396;6.656;2023-06-14T12:45:44;27.90;1.00
7894;DHT22;51343;51.396;6.656;2023-06-14T12:48:11;28.00;1.00
7894;DHT22;51343;51.396;6.656;2023-06-14T12:50:37;28.00;1.00
7894;DHT22;51343;51.396;6.656;2023-06-14T12:53:04;27.80;1.00
7894;DHT22;51343;51.396;6.656;2023-06-14T12:55:31;27.80;1.00
7894;DHT22;51343;51.396;6.656;2023-06-14T12:57:58;27.90;1.00
7894;DHT22;51343;51.396;6.656;2023-06-14T13:00:25;27.70;1.00
7894;DHT22;51343;51.396;6.656;2023-06-14T13:02:53;27.60;1.00
7894;DHT22;51343;51.396;6.656;2023-06-14T13:05:20;27.70;1.00
7894;DHT22;51343;51.396;6.656;2023-06-14T13:07:46;27.80;1.00
7894;DHT22;51343;51.396;6.656;2023-06-14T13:10:14;28.10;1.00
7894;DHT22;51343;51.396;6.656;2023-06-14T13:12:41;28.50;1.00
7894;DHT22;51343;51.396;6.656;2023-06-14T13:15:07;28.30;1.00
7894;DHT22;51343;51.396;6.656;2023-06-14T13:17:35;28.50;1.00
7894;DHT22;51343;51.396;6.656;2023-06-14T13:20:05;28.40;1.00
7894;DHT22;51343;51.396;6.656;2023-06-14T13:22:32;28.00;1.00
7894;DHT22;51343;51.396;6.656;2023-06-14T13:24:59;28.00;1.00
7894;DHT22;51343;51.396;6.656;2023-06-14T13:27:26;28.30;1.00
7894;DHT22;51343;51.396;6.656;2023-06-14T13:29:52;28.50;1.00
7894;DHT22;51343;51.396;6.656;2023-06-14T13:32:20;28.50;1.00
7894;DHT22;51343;51.396;6.656;2023-06-14T13:34:47;28.10;1.00
7894;DHT22;51343;51.396;6.656;2023-06-14T13:37:16;28.30;1.00
7894;DHT22;51343;51.396;6.656;2023-06-14T13:39:42;28.50;1.00
7894;DHT22;51343;51.396;6.656;2023-06-14T13:42:10;28.30;1.00
7894;DHT22;51343;51.396;6.656;2023-06-14T13:44:38;28.00;1.00
7894;DHT22;51343;51.396;6.656;2023-06-14T13:47:05;28.00;1.00
7894;DHT22;51343;51.396;6.656;2023-06-14T13:49:31;28.10;1.00
7894;DHT22;51343;51.396;6.656;2023-06-14T13:52:00;28.30;1.00
7894;DHT22;51343;51.396;6.656;2023-06-14T13:54:28;28.40;1.00
7894;DHT22;51343;51.396;6.656;2023-06-14T13:56:55;28.70;1.00
7894;DHT22;51343;51.396;6.656;2023-06-14T13:59:21;28.40;1.00
7894;DHT22;51343;51.396;6.656;2023-06-14T14:01:48;28.50;1.00
7894;DHT22;51343;51.396;6.656;2023-06-14T14:04:15;28.40;1.00
7894;DHT22;51343;51.396;6.656;2023-06-14T14:06:41;28.10;1.00
7894;DHT22;51343;51.396;6.656;2023-06-14T14:09:08;28.10;1.00
7894;DHT22;51343;51.396;6.656;2023-06-14T14:11:36;28.40;1.00
7894;DHT22;51343;51.396;6.656;2023-06-14T14:14:06;28.40;1.00
7894;DHT22;51343;51.396;6.656;2023-06-14T14:16:32;28.60;1.00
7894;DHT22;51343;51.396;6.656;2023-06-14T14:19:00;28.70;1.00
7894;DHT22;51343;51.396;6.656;2023-06-14T14:21:27;28.40;1.00
7894;DHT22;51343;51.396;6.656;2023-06-14T14:23:54;28.20;1.00
7894;DHT22;51343;51.396;6.656;2023-06-14T14:26:21;28.10;1.00
7894;DHT22;51343;51.396;6.656;2023-06-14T14:28:50;28.10;1.00
7894;DHT22;51343;51.396;6.656;2023-06-14T14:31:18;27.90;1.00
7894;DHT22;51343;51.396;6.656;2023-06-14T14:33:44;27.80;1.00
7894;DHT22;51343;51.396;6.656;2023-06-14T14:36:11;27.90;1.00
7894;DHT22;51343;51.396;6.656;2023-06-14T14:38:39;28.00;1.00
7894;DHT22;51343;51.396;6.656;2023-06-14T14:41:05;28.10;1.00
7894;DHT22;51343;51.396;6.656;2023-06-14T14:43:32;28.20;1.00
7894;DHT22;51343;51.396;6.656;2023-06-14T14:46:01;28.30;1.00
7894;DHT22;51343;51.396;6.656;2023-06-14T14:48:28;28.30;1.00
7894;DHT22;51343;51.396;6.656;2023-06-14T14:50:56;28.30;1.00
7894;DHT22;51343;51.396;6.656;2023-06-14T14:53:24;28.30;1.00
7894;DHT22;51343;51.396;6.656;2023-06-14T14:55:51;28.20;1.00
7894;DHT22;51343;51.396;6.656;2023-06-14T14:58:18;28.10;1.00
7894;DHT22;51343;51.396;6.656;2023-06-14T15:00:45;28.10;1.00
7894;DHT22;51343;51.396;6.656;2023-06-14T15:03:13;28.30;1.00
7894;DHT22;51343;51.396;6.656;2023-06-14T15:05:40;27.90;1.00
7894;DHT22;51343;51.396;6.656;2023-06-14T15:08:06;28.20;1.00
7894;DHT22;51343;51.396;6.656;2023-06-14T15:10:37;28.10;1.00
7894;DHT22;51343;51.396;6.656;2023-06-14T15:13:06;28.10;1.00
7894;DHT22;51343;51.396;6.656;2023-06-14T15:15:33;28.00;1.00
7894;DHT22;51343;51.396;6.656;2023-06-14T15:18:00;27.90;1.00
7894;DHT22;51343;51.396;6.656;2023-06-14T15:20:28;27.60;1.00
7894;DHT22;51343;51.396;6.656;2023-06-14T15:22:55;27.50;1.00
7894;DHT22;51343;51.396;6.656;2023-06-14T15:25:25;27.20;1.00
7894;DHT22;51343;51.396;6.656;2023-06-14T15:27:52;27.40;1.00
7894;DHT22;51343;51.396;6.656;2023-06-14T15:30:19;27.40;1.00
7894;DHT22;51343;51.396;6.656;2023-06-14T15:32:46;27.70;1.00
7894;DHT22;51343;51.396;6.656;2023-06-14T15:35:12;27.60;1.00
7894;DHT22;51343;51.396;6.656;2023-06-14T15:37:41;27.60;1.00
7894;DHT22;51343;51.396;6.656;2023-06-14T15:40:08;27.50;1.00
7894;DHT22;51343;51.396;6.656;2023-06-14T15:42:34;27.50;1.00
7894;DHT22;51343;51.396;6.656;2023-06-14T15:45:01;27.40;1.00
7894;DHT22;51343;51.396;6.656;2023-06-14T15:47:28;27.40;1.00
7894;DHT22;51343;51.396;6.656;2023-06-14T15:49:55;27.10;1.00
7894;DHT22;51343;51.396;6.656;2023-06-14T15:52:21;27.00;1.00
7894;DHT22;51343;51.396;6.656;2023-06-14T15:54:49;27.00;1.00
7894;DHT22;51343;51.396;6.656;2023-06-14T15:57:16;26.60;1.00
7894;DHT22;51343;51.396;6.656;2023-06-14T15:59:42;26.50;1.00
7894;DHT22;51343;51.396;6.656;2023-06-14T16:02:09;26.40;1.00
7894;DHT22;51343;51.396;6.656;2023-06-14T16:04:36;26.40;1.00
7894;DHT22;51343;51.396;6.656;2023-06-14T16:07:02;26.40;1.00
7894;DHT22;51343;51.396;6.656;2023-06-14T16:09:29;26.50;1.00
7894;DHT22;51343;51.396;6.656;2023-06-14T16:11:57;26.40;1.00